Time;durP1;ratioP1;P1;durP2;ratioP2;P2;SDS_P1;SDS_P2;PMS_P1;PMS_P2;Temp;Humidity;BMP_temperature;BMP_pressure;BME280_temperature;BME280_humidity;BME280_pressure;Samples;Min_cycle;Max_cycle;Signal;HPM_P1;HPM_P2
2022/04/03 00:00:47;;;;;;;3.60;0.73;;;-1.00;99.90;;;;;;5060560;28;20029;-70
2022/04/03 00:03:13;;;;;;;2.83;0.90;;;-1.10;99.90;;;;;;5060472;28;20029;-70
2022/04/03 00:05:41;;;;;;;4.45;0.85;;;-1.00;99.90;;;;;;5060476;28;20067;-70
2022/04/03 00:08:08;;;;;;;2.00;0.52;;;-1.00;99.90;;;;;;5060896;28;20032;-70
2022/04/03 00:10:35;;;;;;;5.13;0.88;;;-1.10;99.90;;;;;;5060336;28;20025;-70
2022/04/03 00:13:01;;;;;;;5.25;0.88;;;-1.10;99.90;;;;;;5060748;28;20470;-70
2022/04/03 00:15:27;;;;;;;2.83;0.70;;;-1.10;99.90;;;;;;5060392;28;20079;-70
2022/04/03 00:17:52;;;;;;;2.00;0.47;;;-1.00;99.90;;;;;;5060571;28;20036;-70
2022/04/03 00:20:19;;;;;;;2.47;0.50;;;-1.10;99.90;;;;;;5060418;28;20048;-70
2022/04/03 00:22:48;;;;;;;2.42;0.60;;;-1.10;99.90;;;;;;5060030;28;20433;-70
2022/04/03 00:25:15;;;;;;;3.42;0.52;;;-1.20;99.90;;;;;;5060042;28;20081;-70
2022/04/03 00:27:40;;;;;;;2.80;0.88;;;-1.10;99.90;;;;;;5060575;28;20227;-70
2022/04/03 00:30:09;;;;;;;3.63;0.47;;;-1.10;99.90;;;;;;5058879;28;20183;-70
2022/04/03 00:32:34;;;;;;;;;;;-1.20;99.90;;;;;;5060525;28;20067;-70
2022/04/03 00:35:01;;;;;;;4.90;0.60;;;-1.20;99.90;;;;;;5060266;28;20412;-70
2022/04/03 00:37:27;;;;;;;1.88;0.40;;;-1.10;99.90;;;;;;5060144;28;20029;-70
2022/04/03 00:39:52;;;;;;;2.65;0.45;;;-1.20;99.90;;;;;;5060182;28;20529;-70
2022/04/03 00:42:19;;;;;;;2.63;0.70;;;-1.20;99.90;;;;;;5055086;28;20025;-70
2022/04/03 00:44:44;;;;;;;4.20;0.40;;;-1.10;99.90;;;;;;5056441;28;20448;-70
2022/04/03 00:47:12;;;;;;;3.50;0.50;;;-1.20;99.90;;;;;;5056444;28;20135;-70
2022/04/03 00:49:38;;;;;;;1.45;0.45;;;-1.20;99.90;;;;;;5056331;28;20040;-70
2022/04/03 00:52:04;;;;;;;2.83;0.50;;;-1.20;99.90;;;;;;5056801;28;20513;-70
2022/04/03 00:54:29;;;;;;;2.15;0.50;;;-1.20;99.90;;;;;;5056338;28;20087;-70
2022/04/03 00:56:55;;;;;;;2.60;0.40;;;-1.20;99.90;;;;;;5056910;28;20466;-70
2022/04/03 00:59:21;;;;;;;1.42;0.88;;;-1.20;99.90;;;;;;5056295;28;20059;-70
2022/04/03 01:01:47;;;;;;;2.92;0.60;;;-1.30;99.90;;;;;;5055092;28;20367;-70
2022/04/03 01:04:13;;;;;;;2.38;0.47;;;-1.30;99.90;;;;;;5056565;28;20028;-70
2022/04/03 01:06:39;;;;;;;1.77;0.22;;;-1.40;99.90;;;;;;5056826;28;20025;-70
2022/04/03 01:09:06;;;;;;;1.80;0.65;;;-1.40;99.90;;;;;;5056419;28;20106;-70
2022/04/03 01:11:31;;;;;;;5.53;0.57;;;-1.30;99.90;;;;;;5054869;28;20482;-70
2022/04/03 01:13:57;;;;;;;3.30;0.50;;;-1.40;99.90;;;;;;5056398;28;20021;-72
2022/04/03 01:16:23;;;;;;;2.58;0.40;;;-1.40;99.90;;;;;;5056399;28;20112;-71
2022/04/03 01:18:49;;;;;;;3.80;0.73;;;-1.40;99.90;;;;;;5056443;28;20024;-73
2022/04/03 01:21:16;;;;;;;3.97;0.60;;;-1.40;99.90;;;;;;5056041;28;20029;-71
2022/04/03 01:23:43;;;;;;;2.25;0.63;;;-1.40;99.90;;;;;;5055973;28;20036;-71
2022/04/03 01:26:08;;;;;;;2.95;0.30;;;-1.50;99.90;;;;;;5055825;28;20086;-71
2022/04/03 01:28:34;;;;;;;2.20;0.30;;;-1.40;99.90;;;;;;5055879;28;20029;-71
2022/04/03 01:31:00;;;;;;;1.15;0.40;;;-1.50;99.90;;;;;;5054665;28;20022;-71
2022/04/03 01:33:26;;;;;;;4.20;0.70;;;-1.50;99.90;;;;;;5054512;28;20021;-71
2022/04/03 01:35:51;;;;;;;4.10;0.63;;;-1.50;99.90;;;;;;5055999;28;20021;-71
2022/04/03 01:38:17;;;;;;;1.33;0.35;;;-1.50;99.90;;;;;;5054490;28;20036;-71
2022/04/03 01:40:42;;;;;;;8.02;0.90;;;-1.50;99.90;;;;;;5054500;28;20041;-71
2022/04/03 01:43:10;;;;;;;1.10;0.25;;;-1.50;99.90;;;;;;5054688;28;20501;-71
2022/04/03 01:45:37;;;;;;;3.20;0.63;;;-1.50;99.90;;;;;;5055612;28;20021;-71
2022/04/03 01:48:04;;;;;;;3.25;0.20;;;-1.40;99.90;;;;;;5056126;28;20025;-71
2022/04/03 01:50:30;;;;;;;3.63;0.35;;;-1.40;99.90;;;;;;5055439;28;20036;-71
2022/04/03 01:52:56;;;;;;;1.40;0.15;;;-1.40;99.90;;;;;;5055262;28;20409;-71
2022/04/03 01:55:23;;;;;;;2.20;0.35;;;-1.40;99.90;;;;;;5054261;28;20013;-71
2022/04/03 01:57:48;;;;;;;3.65;0.55;;;-1.50;99.90;;;;;;5055853;28;20028;-71
2022/04/03 02:00:14;;;;;;;2.25;0.35;;;-1.50;99.90;;;;;;5055263;28;20527;-71
2022/04/03 02:02:40;;;;;;;4.55;0.40;;;-1.40;99.90;;;;;;5054026;28;20037;-71
2022/04/03 02:05:06;;;;;;;1.27;0.38;;;-1.30;99.90;;;;;;5055270;28;20033;-71
2022/04/03 02:07:33;;;;;;;3.42;0.80;;;-1.30;99.90;;;;;;5054292;28;20025;-71
2022/04/03 02:10:00;;;;;;;2.05;0.25;;;-1.30;99.90;;;;;;5055085;28;20025;-71
2022/04/03 02:12:25;;;;;;;2.25;0.43;;;-1.30;99.90;;;;;;5055286;28;20021;-71
2022/04/03 02:14:51;;;;;;;1.52;0.38;;;-1.30;99.90;;;;;;5055436;28;20027;-71
2022/04/03 02:17:18;;;;;;;1.70;0.40;;;-1.30;99.90;;;;;;5055072;28;20024;-71
2022/04/03 02:19:44;;;;;;;2.45;0.43;;;-1.20;99.90;;;;;;5055046;28;20031;-71
2022/04/03 02:22:10;;;;;;;1.85;0.20;;;-1.20;99.90;;;;;;5055164;28;20021;-71
2022/04/03 02:24:35;;;;;;;2.30;0.60;;;-1.10;99.90;;;;;;5055071;28;20112;-71
2022/04/03 02:27:01;;;;;;;2.05;0.40;;;-1.10;99.90;;;;;;5053802;28;20506;-71
2022/04/03 02:29:26;;;;;;;1.38;0.13;;;-1.00;99.90;;;;;;5053557;28;20027;-71
2022/04/03 02:31:52;;;;;;;0.90;0.17;;;-0.90;99.90;;;;;;5055038;28;20552;-71
2022/04/03 02:34:17;;;;;;;4.43;0.40;;;-0.90;99.90;;;;;;5054869;28;20024;-71
2022/04/03 02:36:43;;;;;;;5.30;0.20;;;-1.00;99.90;;;;;;5054791;28;20028;-71
2022/04/03 02:39:10;;;;;;;3.55;0.85;;;-0.90;99.90;;;;;;5055224;28;20048;-71
2022/04/03 02:41:36;;;;;;;0.65;0.15;;;-0.80;99.90;;;;;;5054404;28;20052;-71
2022/04/03 02:44:03;;;;;;;2.63;0.32;;;-0.90;99.90;;;;;;5054462;28;20013;-71
2022/04/03 02:46:29;;;;;;;1.52;0.10;;;-0.90;99.90;;;;;;5054922;28;20488;-71
2022/04/03 02:48:55;;;;;;;1.08;0.30;;;-0.90;99.90;;;;;;5055277;28;20083;-71
2022/04/03 02:51:20;;;;;;;0.55;0.10;;;-0.90;99.90;;;;;;5054523;28;20028;-71
2022/04/03 02:53:46;;;;;;;3.72;0.03;;;-0.90;99.90;;;;;;5054672;28;20021;-71
2022/04/03 02:56:12;;;;;;;0.90;0.10;;;-0.90;99.90;;;;;;5054553;28;20031;-71
2022/04/03 02:58:37;;;;;;;1.10;0.20;;;-0.90;99.90;;;;;;5054380;28;20031;-71
2022/04/03 03:01:03;;;;;;;4.45;0.28;;;-0.90;99.90;;;;;;5054387;28;20021;-71
2022/04/03 03:03:28;;;;;;;1.08;0.20;;;-0.80;99.90;;;;;;5053204;28;20029;-71
2022/04/03 03:05:54;;;;;;;1.58;0.08;;;-0.90;99.90;;;;;;5054163;28;20390;-71
2022/04/03 03:08:19;;;;;;;1.38;0.30;;;-0.80;99.90;;;;;;5052656;28;20017;-71
2022/04/03 03:10:45;;;;;;;1.23;0.20;;;-0.80;99.90;;;;;;5053425;28;20032;-71
2022/04/03 03:13:12;;;;;;;1.83;0.08;;;-0.80;99.90;;;;;;5054165;28;20028;-71
2022/04/03 03:15:38;;;;;;;1.15;0.30;;;-0.80;99.90;;;;;;5054801;28;20017;-73
2022/04/03 03:18:04;;;;;;;3.47;0.50;;;-0.80;99.90;;;;;;5052312;28;20553;-73
2022/04/03 03:20:32;;;;;;;3.95;0.57;;;-0.80;99.90;;;;;;5054844;28;20024;-76
2022/04/03 03:22:59;;;;;;;0.57;0.30;;;0.90;99.90;;;;;;5052652;28;20021;-75
2022/04/03 03:25:24;;;;;;;4.28;0.52;;;-0.70;99.90;;;;;;5052797;28;20501;-76
2022/04/03 03:27:50;;;;;;;3.85;0.10;;;-0.70;99.90;;;;;;5054282;28;20021;-75
2022/04/03 03:30:15;;;;;;;1.60;0.25;;;-0.70;99.90;;;;;;5053416;28;20074;-75
2022/04/03 03:32:41;;;;;;;1.60;0.10;;;-0.60;99.90;;;;;;5052080;28;20445;-75
2022/04/03 03:35:07;;;;;;;0.75;0.00;;;-0.60;99.90;;;;;;5052424;28;20021;-75
2022/04/03 03:37:33;;;;;;;0.98;0.35;;;-0.50;99.90;;;;;;5052306;28;20028;-75
2022/04/03 03:39:59;;;;;;;3.35;0.20;;;-0.50;99.90;;;;;;5052330;28;20021;-75
2022/04/03 03:42:24;;;;;;;1.25;0.20;;;-0.40;99.90;;;;;;5052327;28;20048;-75
2022/04/03 03:44:50;;;;;;;1.58;0.20;;;-0.30;99.90;;;;;;5052422;28;20461;-75
2022/04/03 03:47:15;;;;;;;1.92;0.15;;;-0.30;99.90;;;;;;5051979;28;20462;-75
2022/04/03 03:49:41;;;;;;;2.38;0.20;;;-0.20;99.90;;;;;;5053901;28;20100;-75
2022/04/03 03:52:07;;;;;;;0.82;0.10;;;-0.20;99.90;;;;;;5052119;28;20512;-75
2022/04/03 03:54:32;;;;;;;2.28;0.20;;;-0.20;99.90;;;;;;5053390;28;20020;-75
2022/04/03 03:56:58;;;;;;;0.50;0.00;;;-0.20;99.90;;;;;;5052479;28;20127;-75
2022/04/03 03:59:24;;;;;;;3.08;0.20;;;-0.20;99.90;;;;;;5054062;28;20451;-75
2022/04/03 04:01:50;;;;;;;2.58;0.10;;;-0.30;99.90;;;;;;5053000;28;20438;-76
2022/04/03 04:04:16;;;;;;;4.57;0.28;;;-0.30;99.90;;;;;;5052995;28;20048;-76
2022/04/03 04:06:41;;;;;;;3.85;0.10;;;-0.40;99.90;;;;;;5051759;28;20105;-75
2022/04/03 04:09:07;;;;;;;1.55;0.20;;;-0.40;99.90;;;;;;5052190;28;20060;-76
2022/04/03 04:11:34;;;;;;;3.55;0.10;;;-0.50;99.90;;;;;;5052480;28;20025;-76
2022/04/03 04:13:59;;;;;;;1.02;0.05;;;-0.50;99.90;;;;;;5054555;28;20021;-76
2022/04/03 04:16:25;;;;;;;0.57;0.13;;;-0.60;99.90;;;;;;5054808;28;20476;-76
2022/04/03 04:18:51;;;;;;;0.70;0.20;;;-0.70;99.90;;;;;;5057020;28;20021;-76
2022/04/03 04:21:17;;;;;;;2.58;0.10;;;-0.70;99.90;;;;;;5056919;28;20094;-76
2022/04/03 04:23:43;;;;;;;1.85;0.20;;;-0.80;99.90;;;;;;5056164;28;20029;-76
2022/04/03 04:26:09;;;;;;;3.42;0.35;;;-0.80;99.90;;;;;;5057625;28;20021;-76
2022/04/03 04:28:35;;;;;;;2.67;0.30;;;-0.80;99.90;;;;;;5057316;28;20381;-76
2022/04/03 04:31:01;;;;;;;1.55;0.10;;;-0.80;99.90;;;;;;5055804;28;20018;-76
2022/04/03 04:33:26;;;;;;;0.85;0.13;;;-0.80;99.90;;;;;;5057114;28;20038;-75
2022/04/03 04:35:52;;;;;;;1.48;0.40;;;-0.80;99.90;;;;;;5057075;28;20025;-76
2022/04/03 04:38:18;;;;;;;4.13;0.90;;;-0.80;99.90;;;;;;5055588;28;20029;-76
2022/04/03 04:40:44;;;;;;;3.22;0.40;;;-0.80;99.90;;;;;;5055841;28;20533;-76
2022/04/03 04:43:11;;;;;;;1.23;0.30;;;-0.80;99.90;;;;;;5056916;28;20062;-76
2022/04/03 04:45:36;;;;;;;2.97;0.85;;;-0.80;99.90;;;;;;5057063;28;20033;-76
2022/04/03 04:48:02;;;;;;;1.98;0.55;;;-0.90;99.90;;;;;;5057036;28;20029;-76
2022/04/03 04:50:29;;;;;;;3.30;0.50;;;-0.90;99.90;;;;;;5055503;28;20013;-75
2022/04/03 04:52:59;;;;;;;4.50;0.32;;;-0.90;99.90;;;;;;5055605;28;20430;-76
2022/04/03 04:55:25;;;;;;;2.40;0.30;;;-0.90;99.90;;;;;;5055313;28;20032;-76
2022/04/03 04:57:56;;;;;;;2.90;0.75;;;-1.00;99.90;;;;;;5056323;28;20028;-76
2022/04/03 05:00:23;;;;;;;4.10;0.60;;;-1.00;99.90;;;;;;5056711;28;20032;-76
2022/04/03 05:02:49;;;;;;;2.67;0.52;;;-1.00;99.90;;;;;;5056535;28;20478;-76
2022/04/03 05:05:17;;;;;;;2.92;1.08;;;-1.00;99.90;;;;;;5054818;28;20067;-76
2022/04/03 05:07:44;;;;;;;2.20;0.57;;;-1.10;99.90;;;;;;5056436;28;20025;-76
2022/04/03 05:10:12;;;;;;;2.55;0.93;;;-1.10;99.90;;;;;;5056165;28;20021;-76
2022/04/03 05:12:37;;;;;;;3.33;1.17;;;-1.10;99.90;;;;;;5056192;28;20052;-76
2022/04/03 05:15:04;;;;;;;4.55;1.30;;;-1.10;99.90;;;;;;5055855;28;20033;-76
2022/04/03 05:17:29;;;;;;;3.60;0.98;;;-1.10;99.90;;;;;;5055844;28;20528;-76
2022/04/03 05:19:55;;;;;;;5.57;1.35;;;-1.10;99.90;;;;;;5055495;28;20115;-76
2022/04/03 05:22:23;;;;;;;3.15;1.50;;;-1.10;99.90;;;;;;5056066;28;20017;-76
2022/04/03 05:24:53;;;;;;;2.67;0.93;;;-1.10;99.90;;;;;;5055646;28;20490;-75
2022/04/03 05:27:19;;;;;;;7.18;2.03;;;-1.10;99.90;;;;;;5055708;28;20025;-75
2022/04/03 05:29:45;;;;;;;8.35;1.70;;;-1.10;99.90;;;;;;5054133;28;20462;-76
2022/04/03 05:32:11;;;;;;;3.40;1.27;;;-1.10;99.90;;;;;;5054156;28;20025;-76
2022/04/03 05:34:36;;;;;;;5.82;2.10;;;-1.10;99.90;;;;;;5055549;28;20026;-75
2022/04/03 05:37:02;;;;;;;5.53;2.08;;;-1.00;99.90;;;;;;5056034;28;20043;-76
2022/04/03 05:39:27;;;;;;;5.85;2.20;;;-1.00;99.90;;;;;;5054316;28;20390;-76
2022/04/03 05:41:56;;;;;;;5.55;1.85;;;-1.00;99.90;;;;;;5055249;28;20024;-76
2022/04/03 05:44:22;;;;;;;5.93;2.33;;;-0.90;99.90;;;;;;5055451;28;20386;-76
2022/04/03 05:46:49;;;;;;;5.53;2.00;;;-0.90;99.90;;;;;;5055341;28;20380;-76
2022/04/03 05:49:15;;;;;;;6.80;2.95;;;-0.80;99.90;;;;;;5054529;28;20017;-75
2022/04/03 05:51:41;;;;;;;4.93;2.15;;;-0.90;99.90;;;;;;5055789;28;20025;-75
2022/04/03 05:54:07;;;;;;;6.25;2.03;;;-0.80;99.90;;;;;;5055848;28;20078;-76
2022/04/03 05:56:32;;;;;;;6.68;1.98;;;-0.70;99.90;;;;;;5055866;28;20029;-76
2022/04/03 05:58:58;;;;;;;5.43;2.47;;;-0.60;99.90;;;;;;5053988;28;20017;-72
2022/04/03 06:01:24;;;;;;;7.18;2.30;;;-0.50;99.90;;;;;;5055456;28;20044;-73
2022/04/03 06:03:50;;;;;;;5.55;3.00;;;-0.50;99.90;;;;;;5055325;28;20021;-72
2022/04/03 06:06:16;;;;;;;6.45;2.83;;;-0.30;99.90;;;;;;5055069;28;20532;-72
2022/04/03 06:08:45;;;;;;;6.75;2.95;;;-0.30;99.90;;;;;;5053443;28;20032;-72
2022/04/03 06:11:11;;;;;;;5.28;3.05;;;-0.20;99.90;;;;;;5054884;28;20017;-72
2022/04/03 06:13:37;;;;;;;6.32;3.22;;;-0.10;99.90;;;;;;5055506;28;20025;-72
2022/04/03 06:16:03;;;;;;;6.78;3.35;;;0.00;99.90;;;;;;5055081;28;20025;-72
2022/04/03 06:18:29;;;;;;;10.85;3.92;;;0.10;99.90;;;;;;5055275;28;20029;-72
2022/04/03 06:20:54;;;;;;;9.07;4.07;;;0.20;99.90;;;;;;5053357;28;20111;-72
2022/04/03 06:23:22;;;;;;;7.18;4.25;;;0.30;99.90;;;;;;5054913;28;20398;-72
2022/04/03 06:25:52;;;;;;;7.95;3.75;;;0.40;99.90;;;;;;5054684;28;20039;-73
2022/04/03 06:28:18;;;;;;;11.45;4.32;;;0.60;99.90;;;;;;5053722;28;20109;-72
2022/04/03 06:30:44;;;;;;;9.98;4.10;;;0.70;99.90;;;;;;5053477;28;20501;-72
2022/04/03 06:33:10;;;;;;;8.38;4.20;;;0.90;99.90;;;;;;5053693;28;20111;-72
2022/04/03 06:35:35;;;;;;;9.00;4.00;;;1.00;99.90;;;;;;5054901;28;20021;-72
2022/04/03 06:38:01;;;;;;;10.85;3.85;;;1.20;99.90;;;;;;5053105;28;20051;-72
2022/04/03 06:40:27;;;;;;;6.53;3.60;;;1.30;99.90;;;;;;5053814;28;20378;-73
2022/04/03 06:42:53;;;;;;;7.30;4.05;;;1.60;99.90;;;;;;5054436;28;20025;-72
2022/04/03 06:45:18;;;;;;;7.28;3.53;;;1.70;99.90;;;;;;5054294;28;20055;-72
2022/04/03 06:47:44;;;;;;;7.40;4.03;;;1.90;99.90;;;;;;5053922;28;20142;-72
2022/04/03 06:50:10;;;;;;;6.78;2.92;;;2.10;99.90;;;;;;5052590;28;20059;-73
2022/04/03 06:52:36;;;;;;;6.18;3.17;;;2.20;99.90;;;;;;5054086;28;20485;-73
2022/04/03 06:55:03;;;;;;;6.10;3.35;;;2.30;99.90;;;;;;5054081;28;20021;-72
2022/04/03 06:57:29;;;;;;;8.15;3.60;;;2.40;99.90;;;;;;5054090;28;20033;-72
2022/04/03 06:59:55;;;;;;;6.25;2.65;;;2.40;99.90;;;;;;5052556;28;20032;-73
2022/04/03 07:02:20;;;;;;;5.18;3.15;;;2.40;99.90;;;;;;5053979;28;20037;-73
2022/04/03 07:04:46;;;;;;;6.32;3.30;;;2.30;99.90;;;;;;5053896;28;20098;-73
2022/04/03 07:07:19;;;;;;;6.25;1.73;;;2.30;99.90;;;;;;5054853;28;20470;-72
2022/04/03 07:09:45;;;;;;;3.75;1.92;;;2.30;99.90;;;;;;5052314;28;20070;-72
2022/04/03 07:12:11;;;;;;;3.97;2.08;;;2.30;99.90;;;;;;5052542;28;20017;-72
2022/04/03 07:14:37;;;;;;;3.00;1.50;;;2.40;99.90;;;;;;5054229;28;20366;-72
2022/04/03 07:17:03;;;;;;;2.58;1.17;;;2.60;99.90;;;;;;5052595;28;20017;-72
2022/04/03 07:19:28;;;;;;;5.80;2.22;;;2.80;99.90;;;;;;5053043;28;20520;-72
2022/04/03 07:21:54;;;;;;;2.10;0.98;;;3.00;99.90;;;;;;5052191;28;20025;-72
2022/04/03 07:24:19;;;;;;;2.97;0.90;;;3.30;99.90;;;;;;5053447;28;20039;-73
2022/04/03 07:26:45;;;;;;;4.40;1.27;;;3.40;99.90;;;;;;5054247;28;20025;-72
2022/04/03 07:29:10;;;;;;;6.82;0.50;;;3.60;99.90;;;;;;5053857;28;20473;-73
2022/04/03 07:31:36;;;;;;;0.68;0.50;;;3.70;99.90;;;;;;5053248;28;20102;-72
2022/04/03 07:34:01;;;;;;;1.25;0.40;;;3.80;99.90;;;;;;5053408;28;20095;-72
2022/04/03 07:36:27;;;;;;;2.20;0.43;;;3.90;99.90;;;;;;5053631;28;20029;-72
2022/04/03 07:38:53;;;;;;;2.90;0.22;;;4.00;99.90;;;;;;5053537;28;20025;-72
2022/04/03 07:41:19;;;;;;;4.15;0.40;;;4.10;99.90;;;;;;5053795;28;20096;-72
2022/04/03 07:43:45;;;;;;;1.63;0.30;;;4.40;99.90;;;;;;5053629;28;20523;-72
2022/04/03 07:46:16;;;;;;;1.95;0.47;;;4.50;99.90;;;;;;5052160;28;20433;-73
2022/04/03 07:48:44;;;;;;;1.80;0.25;;;4.70;99.90;;;;;;5051860;28;20059;-73
2022/04/03 07:51:10;;;;;;;1.92;0.28;;;4.80;99.90;;;;;;5056322;28;20025;-74
2022/04/03 07:53:37;;;;;;;4.13;0.65;;;5.00;99.90;;;;;;5057615;28;20029;-75
2022/04/03 07:56:05;;;;;;;3.55;0.82;;;5.10;99.90;;;;;;5057426;28;20017;-74
2022/04/03 07:58:36;;;;;;;5.45;0.22;;;5.20;99.90;;;;;;5057738;28;20074;-75
2022/04/03 08:01:03;;;;;;;2.38;0.15;;;5.10;99.90;;;;;;5057485;28;20020;-75
2022/04/03 08:03:29;;;;;;;2.28;0.32;;;5.30;99.90;;;;;;5055969;28;20064;-75
2022/04/03 08:05:55;;;;;;;3.08;0.43;;;5.40;99.90;;;;;;5056808;28;20071;-75
2022/04/03 08:08:21;;;;;;;0.30;0.10;;;5.50;99.90;;;;;;5057381;28;20024;-74
2022/04/03 08:10:47;;;;;;;2.10;0.05;;;5.60;99.90;;;;;;5057474;28;20017;-72
2022/04/03 08:13:14;;;;;;;2.28;0.00;;;5.50;99.90;;;;;;5056890;28;20131;-73
2022/04/03 08:15:40;;;;;;;1.55;0.30;;;5.40;99.90;;;;;;5057206;28;20382;-73
2022/04/03 08:18:06;;;;;;;1.38;0.10;;;5.50;99.90;;;;;;5055393;28;20021;-73
2022/04/03 08:20:32;;;;;;;0.75;0.00;;;5.60;99.90;;;;;;5057317;28;20023;-73
2022/04/03 08:23:00;;;;;;;0.38;0.08;;;5.80;99.90;;;;;;5056859;28;20029;-73
2022/04/03 08:25:25;;;;;;;0.27;0.10;;;6.10;99.90;;;;;;5057071;28;20111;-73
2022/04/03 08:27:54;;;;;;;3.25;0.00;;;6.40;99.90;;;;;;5055552;28;20059;-73
2022/04/03 08:30:28;;;;;;;1.80;0.00;;;6.80;99.90;;;;;;5056818;28;20048;-74
2022/04/03 08:32:54;;;;;;;0.65;0.00;;;7.00;99.90;;;;;;5056668;28;20033;-73
2022/04/03 08:35:22;;;;;;;0.55;0.00;;;7.30;98.90;;;;;;5057163;28;20497;-74
2022/04/03 08:37:48;;;;;;;0.32;0.15;;;7.60;95.90;;;;;;5057516;28;20512;-74
2022/04/03 08:40:14;;;;;;;1.80;0.10;;;7.60;94.50;;;;;;5055049;28;20394;-74
2022/04/03 08:42:40;;;;;;;2.65;0.40;;;7.70;94.10;;;;;;5056066;28;20082;-74
2022/04/03 08:45:11;;;;;;;0.30;0.00;;;7.70;96.40;;;;;;5056427;28;20422;-73
2022/04/03 08:47:43;;;;;;;1.02;0.20;;;7.60;92.70;;;;;;5056571;28;20079;-75
2022/04/03 08:50:10;;;;;;;2.05;0.00;;;7.50;94.40;;;;;;5056478;28;20032;-73
2022/04/03 08:52:37;;;;;;;2.67;0.00;;;7.50;92.50;;;;;;5055153;28;20017;-75
2022/04/03 08:55:04;;;;;;;2.58;0.00;;;7.40;93.70;;;;;;5054905;28;20437;-72
2022/04/03 08:57:30;;;;;;;1.55;0.15;;;7.40;95.60;;;;;;5054770;28;20029;-73
2022/04/03 08:59:56;;;;;;;0.57;0.00;;;7.30;92.20;;;;;;5056202;28;20029;-73
2022/04/03 09:02:22;;;;;;;1.25;0.00;;;7.30;95.60;;;;;;5054372;28;20121;-73
2022/04/03 09:04:48;;;;;;;0.10;0.00;;;7.50;98.10;;;;;;5056193;28;20068;-73
2022/04/03 09:07:18;;;;;;;3.20;0.00;;;7.90;99.30;;;;;;5054708;28;20371;-73
2022/04/03 09:09:44;;;;;;;4.50;0.20;;;8.10;90.30;;;;;;5053826;28;20025;-73
2022/04/03 09:12:12;;;;;;;2.03;0.00;;;8.10;91.70;;;;;;5054982;28;20032;-73
2022/04/03 09:15:11;;;;;;;3.10;0.00;;;8.10;90.40;;;;;;5056082;28;20382;-73
2022/04/03 09:17:42;;;;;;;0.25;0.00;;;8.10;93.40;;;;;;5044682;28;20033;-73
2022/04/03 09:20:10;;;;;;;0.20;0.00;;;8.00;91.90;;;;;;5054595;28;20066;-73
2022/04/03 09:22:37;;;;;;;0.70;0.00;;;8.00;94.40;;;;;;5056159;28;20029;-73
2022/04/03 09:25:11;;;;;;;1.42;0.00;;;8.00;95.30;;;;;;5055669;28;20033;-73
2022/04/03 09:27:50;;;;;;;1.98;0.00;;;8.10;94.10;;;;;;5054765;28;20433;-73
2022/04/03 09:30:17;;;;;;;;;;;8.10;92.10;;;;;;5056217;28;20017;-73
2022/04/03 09:32:50;;;;;;;1.17;0.10;;;8.20;93.20;;;;;;5054434;28;19995;-73
2022/04/03 09:35:18;;;;;;;0.93;0.10;;;8.30;93.60;;;;;;5054203;28;20124;-72
2022/04/03 09:38:06;;;;;;;0.10;0.00;;;8.50;94.70;;;;;;5055736;28;20440;-72
2022/04/03 09:40:36;;;;;;;2.38;0.00;;;8.20;99.20;;;;;;5054108;28;20103;-72
2022/04/03 09:43:35;;;;;;;1.27;0.00;;;7.90;99.90;;;;;;5054796;28;20035;-72
2022/04/03 09:46:04;;;;;;;0.95;0.10;;;7.60;99.90;;;;;;5055356;28;20052;-72
2022/04/03 09:48:33;;;;;;;2.80;0.00;;;7.40;99.90;;;;;;5055529;28;20079;-72
2022/04/03 09:51:14;;;;;;;4.07;0.65;;;7.20;99.90;;;;;;5055343;28;20383;-73
2022/04/03 09:53:53;;;;;;;4.10;0.28;;;7.10;99.90;;;;;;5054040;28;20474;-73
2022/04/03 09:56:22;;;;;;;3.33;0.82;;;7.00;99.90;;;;;;5055690;28;20497;-72
2022/04/03 09:58:50;;;;;;;1.02;0.15;;;6.90;99.90;;;;;;5055565;28;20029;-73
2022/04/03 10:01:34;;;;;;;1.10;0.13;;;6.90;99.90;;;;;;5053740;28;20033;-73
2022/04/03 10:04:01;;;;;;;4.10;0.63;;;6.80;99.90;;;;;;5055318;28;20102;-73
2022/04/03 10:06:28;;;;;;;0.30;0.03;;;6.80;99.90;;;;;;5055050;28;20029;-73
2022/04/03 10:08:54;;;;;;;1.83;0.73;;;6.80;99.90;;;;;;5055373;28;20029;-73
2022/04/03 10:11:21;;;;;;;0.80;0.00;;;6.80;99.90;;;;;;5055062;28;20449;-73
2022/04/03 10:13:47;;;;;;;0.20;0.00;;;6.90;99.90;;;;;;5053711;28;20017;-73
2022/04/03 10:16:14;;;;;;;0.52;0.00;;;7.10;99.90;;;;;;5054846;28;20021;-72
2022/04/03 10:18:41;;;;;;;0.40;0.00;;;7.20;99.90;;;;;;5054926;28;20028;-72
2022/04/03 10:21:29;;;;;;;0.25;0.00;;;7.30;99.90;;;;;;5055258;28;20461;-72
2022/04/03 10:24:01;;;;;;;1.97;0.20;;;7.50;99.90;;;;;;5043871;28;20077;-72
2022/04/03 10:26:28;;;;;;;1.10;0.00;;;7.80;99.90;;;;;;5053573;28;20021;-72
2022/04/03 10:28:56;;;;;;;0.13;0.00;;;8.00;99.90;;;;;;5053137;28;20025;-72
2022/04/03 10:31:22;;;;;;;0.00;0.00;;;7.90;99.90;;;;;;5053376;28;20433;-72
2022/04/03 10:33:49;;;;;;;1.17;0.00;;;7.90;99.90;;;;;;5054478;28;20017;-72
2022/04/03 10:36:24;;;;;;;0.63;0.00;;;8.20;99.90;;;;;;5055211;28;20024;-72
2022/04/03 10:39:04;;;;;;;0.20;0.00;;;8.50;99.90;;;;;;5053182;28;20031;-72
2022/04/03 10:41:34;;;;;;;1.15;0.10;;;8.60;99.90;;;;;;5054927;28;20096;-72
2022/04/03 10:44:14;;;;;;;0.00;0.00;;;8.80;99.90;;;;;;5054544;28;20021;-72
2022/04/03 10:47:02;;;;;;;1.15;0.00;;;9.00;99.90;;;;;;5054146;28;20048;-72
2022/04/03 10:49:30;;;;;;;2.35;0.00;;;9.10;99.80;;;;;;5052954;28;20025;-72
2022/04/03 10:52:00;;;;;;;;;;;9.10;98.30;;;;;;5054410;28;20029;-72
2022/04/03 10:54:30;;;;;;;4.40;0.00;;;9.20;99.50;;;;;;5054543;28;20266;-72
2022/04/03 10:57:33;;;;;;;0.28;0.00;;;9.20;99.00;;;;;;5054512;28;20036;-72
2022/04/03 11:00:14;;;;;;;0.10;0.00;;;9.30;99.90;;;;;;5053201;28;20089;-72
2022/04/03 11:02:42;;;;;;;0.43;0.00;;;9.50;96.90;;;;;;5054125;28;20025;-72
2022/04/03 11:05:36;;;;;;;0.00;0.00;;;9.60;98.80;;;;;;5054118;28;20062;-72
2022/04/03 11:08:04;;;;;;;0.28;0.00;;;9.60;96.70;;;;;;5054272;28;20103;-72
2022/04/03 11:10:54;;;;;;;0.50;0.00;;;9.50;95.50;;;;;;5054347;28;20470;-72
2022/04/03 11:13:37;;;;;;;0.00;0.00;;;9.50;95.40;;;;;;5054271;28;20389;-72
2022/04/03 11:16:06;;;;;;;0.10;0.00;;;9.70;94.20;;;;;;5054301;28;20097;-72
2022/04/03 11:18:50;;;;;;;0.25;0.00;;;9.80;94.70;;;;;;5054519;28;20020;-72
2022/04/03 11:21:24;;;;;;;0.77;0.20;;;9.90;91.20;;;;;;5054444;28;20083;-72
2022/04/03 11:24:00;;;;;;;1.38;0.00;;;10.00;86.50;;;;;;5052429;28;20025;-72
2022/04/03 11:26:27;;;;;;;2.35;0.00;;;10.10;84.60;;;;;;5054217;28;20370;-72
2022/04/03 11:28:54;;;;;;;0.00;0.00;;;10.20;90.30;;;;;;5052606;28;20025;-72
2022/04/03 11:31:20;;;;;;;0.50;0.00;;;10.40;83.00;;;;;;5052297;28;20032;-72
2022/04/03 11:33:49;;;;;;;1.85;0.00;;;10.20;78.10;;;;;;5053905;28;20017;-72
2022/04/03 11:36:17;;;;;;;0.30;0.00;;;10.40;84.80;;;;;;5053689;28;20063;-72
2022/04/03 11:38:48;;;;;;;1.15;0.00;;;10.50;82.50;;;;;;5054226;28;20525;-72
2022/04/03 11:41:16;;;;;;;0.20;0.00;;;10.90;81.60;;;;;;5053918;28;20031;-72
2022/04/03 11:43:54;;;;;;;0.22;0.00;;;11.10;81.10;;;;;;5053731;28;20061;-72
2022/04/03 11:46:22;;;;;;;0.22;0.00;;;11.00;77.50;;;;;;5052450;28;20120;-72
2022/04/03 11:48:47;;;;;;;0.17;0.00;;;10.60;75.70;;;;;;5053868;28;20475;-72
2022/04/03 11:51:17;;;;;;;0.00;0.00;;;10.10;81.60;;;;;;5053578;28;20122;-72
2022/04/03 11:53:44;;;;;;;0.93;0.00;;;9.80;92.20;;;;;;5052125;28;20021;-72
2022/04/03 11:56:15;;;;;;;0.20;0.00;;;9.30;95.80;;;;;;5053549;28;20021;-72
2022/04/03 11:58:46;;;;;;;0.88;0.00;;;8.80;99.40;;;;;;5053447;28;20025;-72
2022/04/03 12:01:12;;;;;;;0.00;0.00;;;8.20;99.90;;;;;;5052407;28;20439;-72
2022/04/03 12:03:38;;;;;;;0.17;0.00;;;7.80;99.90;;;;;;5054091;28;20056;-72
2022/04/03 12:06:11;;;;;;;0.00;0.00;;;7.50;99.90;;;;;;5053652;28;20047;-72
2022/04/03 12:08:41;;;;;;;0.00;0.00;;;7.20;99.90;;;;;;5053497;28;20469;-72
2022/04/03 12:11:24;;;;;;;0.75;0.00;;;7.10;99.90;;;;;;5053262;28;20163;-72
2022/04/03 12:13:51;;;;;;;1.40;0.00;;;7.00;99.90;;;;;;5053298;28;20493;-72
2022/04/03 12:16:22;;;;;;;0.90;0.00;;;7.00;99.90;;;;;;5053340;28;20029;-72
2022/04/03 12:18:54;;;;;;;2.00;0.00;;;7.10;99.90;;;;;;5052105;28;20025;-72
2022/04/03 12:21:21;;;;;;;0.00;0.00;;;7.20;99.90;;;;;;5052113;28;20115;-72
2022/04/03 12:24:03;;;;;;;0.00;0.00;;;7.40;99.90;;;;;;5051886;28;20033;-72
2022/04/03 12:26:29;;;;;;;0.70;0.00;;;7.60;99.90;;;;;;5053369;28;20025;-72
2022/04/03 12:28:56;;;;;;;0.10;0.00;;;7.80;99.90;;;;;;5053219;28;20072;-72
2022/04/03 12:31:29;;;;;;;1.08;0.10;;;8.20;99.90;;;;;;5053119;28;20021;-72
2022/04/03 12:34:10;;;;;;;0.10;0.00;;;9.00;99.90;;;;;;5053492;28;20024;-72
2022/04/03 12:36:46;;;;;;;0.00;0.00;;;9.60;99.90;;;;;;5053505;28;20092;-72
2022/04/03 12:39:34;;;;;;;0.30;0.00;;;10.30;98.70;;;;;;5057476;28;20025;-72
2022/04/03 12:42:15;;;;;;;0.10;0.10;;;10.70;94.10;;;;;;5055768;28;20032;-72
2022/04/03 12:45:05;;;;;;;1.88;0.00;;;11.20;92.20;;;;;;5056882;28;20045;-72
2022/04/03 12:47:39;;;;;;;2.50;0.00;;;11.90;83.50;;;;;;5056577;28;20048;-72
2022/04/03 12:50:05;;;;;;;0.10;0.00;;;11.90;78.60;;;;;;5055378;28;20021;-72
2022/04/03 12:52:49;;;;;;;0.88;0.00;;;11.90;75.60;;;;;;5055381;28;20029;-72
2022/04/03 12:55:20;;;;;;;4.05;0.40;;;11.70;70.70;;;;;;5055312;28;20024;-72
2022/04/03 13:00:51;;;;;;;1.25;0.00;;;11.40;77.10;;;;;;5056844;28;20048;-72